sensor_id;sensor_type;location;lat;lon;timestamp;P1;durP1;ratioP1;P2;durP2;ratioP2
5923;SDS011;2987;50.884;14.818;2023-03-12T00:00:30;17.33;;;10.73;;
5923;SDS011;2987;50.884;14.818;2023-03-12T00:03:00;16.07;;;10.67;;
5923;SDS011;2987;50.884;14.818;2023-03-12T00:05:26;16.40;;;11.33;;
5923;SDS011;2987;50.884;14.818;2023-03-12T00:07:55;19.73;;;10.37;;
5923;SDS011;2987;50.884;14.818;2023-03-12T00:10:24;16.00;;;9.83;;
5923;SDS011;2987;50.884;14.818;2023-03-12T00:12:51;28.50;;;14.60;;
5923;SDS011;2987;50.884;14.818;2023-03-12T00:15:17;22.93;;;13.27;;
5923;SDS011;2987;50.884;14.818;2023-03-12T00:17:44;20.90;;;13.70;;
5923;SDS011;2987;50.884;14.818;2023-03-12T00:20:10;23.17;;;11.77;;
5923;SDS011;2987;50.884;14.818;2023-03-12T00:22:36;17.50;;;11.70;;
5923;SDS011;2987;50.884;14.818;2023-03-12T00:25:03;16.70;;;11.20;;
5923;SDS011;2987;50.884;14.818;2023-03-12T00:27:31;16.43;;;11.37;;
5923;SDS011;2987;50.884;14.818;2023-03-12T00:29:57;19.70;;;11.43;;
5923;SDS011;2987;50.884;14.818;2023-03-12T00:32:23;18.43;;;11.80;;
5923;SDS011;2987;50.884;14.818;2023-03-12T00:34:50;18.53;;;11.57;;
5923;SDS011;2987;50.884;14.818;2023-03-12T00:37:18;18.83;;;12.17;;
5923;SDS011;2987;50.884;14.818;2023-03-12T00:39:44;19.37;;;11.97;;
5923;SDS011;2987;50.884;14.818;2023-03-12T00:42:13;17.63;;;11.73;;
5923;SDS011;2987;50.884;14.818;2023-03-12T00:44:39;18.10;;;12.30;;
5923;SDS011;2987;50.884;14.818;2023-03-12T00:47:05;20.57;;;12.40;;
5923;SDS011;2987;50.884;14.818;2023-03-12T00:49:32;16.43;;;11.90;;
5923;SDS011;2987;50.884;14.818;2023-03-12T00:51:58;19.23;;;12.13;;
5923;SDS011;2987;50.884;14.818;2023-03-12T00:54:24;23.30;;;11.87;;
5923;SDS011;2987;50.884;14.818;2023-03-12T00:56:50;19.67;;;12.20;;
5923;SDS011;2987;50.884;14.818;2023-03-12T00:59:16;17.20;;;11.77;;
5923;SDS011;2987;50.884;14.818;2023-03-12T01:01:43;19.37;;;12.40;;
5923;SDS011;2987;50.884;14.818;2023-03-12T01:04:10;22.60;;;12.50;;
5923;SDS011;2987;50.884;14.818;2023-03-12T01:06:36;19.23;;;11.77;;
5923;SDS011;2987;50.884;14.818;2023-03-12T01:09:03;17.90;;;10.87;;
5923;SDS011;2987;50.884;14.818;2023-03-12T01:11:31;20.57;;;11.43;;
5923;SDS011;2987;50.884;14.818;2023-03-12T01:13:59;25.03;;;14.03;;
5923;SDS011;2987;50.884;14.818;2023-03-12T01:16:26;21.97;;;12.47;;
5923;SDS011;2987;50.884;14.818;2023-03-12T01:18:55;23.47;;;13.83;;
5923;SDS011;2987;50.884;14.818;2023-03-12T01:21:22;23.47;;;13.43;;
5923;SDS011;2987;50.884;14.818;2023-03-12T01:23:49;19.53;;;11.93;;
5923;SDS011;2987;50.884;14.818;2023-03-12T01:26:16;19.23;;;12.00;;
5923;SDS011;2987;50.884;14.818;2023-03-12T01:28:42;17.87;;;11.33;;
5923;SDS011;2987;50.884;14.818;2023-03-12T01:31:10;18.40;;;11.53;;
5923;SDS011;2987;50.884;14.818;2023-03-12T01:33:39;14.77;;;10.60;;
5923;SDS011;2987;50.884;14.818;2023-03-12T01:36:05;15.70;;;10.40;;
5923;SDS011;2987;50.884;14.818;2023-03-12T01:38:46;16.03;;;10.63;;
5923;SDS011;2987;50.884;14.818;2023-03-12T01:41:14;16.07;;;10.80;;
5923;SDS011;2987;50.884;14.818;2023-03-12T01:43:40;18.23;;;10.87;;
5923;SDS011;2987;50.884;14.818;2023-03-12T01:46:25;16.87;;;10.63;;
5923;SDS011;2987;50.884;14.818;2023-03-12T01:49:16;17.70;;;10.87;;
5923;SDS011;2987;50.884;14.818;2023-03-12T01:51:45;17.97;;;10.83;;
5923;SDS011;2987;50.884;14.818;2023-03-12T01:54:18;20.73;;;10.23;;
5923;SDS011;2987;50.884;14.818;2023-03-12T01:56:48;16.93;;;11.30;;
5923;SDS011;2987;50.884;14.818;2023-03-12T01:59:17;17.07;;;10.67;;
5923;SDS011;2987;50.884;14.818;2023-03-12T02:01:47;16.07;;;10.23;;
5923;SDS011;2987;50.884;14.818;2023-03-12T02:04:15;16.27;;;10.13;;
5923;SDS011;2987;50.884;14.818;2023-03-12T02:06:52;18.90;;;10.40;;
5923;SDS011;2987;50.884;14.818;2023-03-12T02:09:40;18.50;;;9.87;;
5923;SDS011;2987;50.884;14.818;2023-03-12T02:12:08;19.83;;;10.23;;
5923;SDS011;2987;50.884;14.818;2023-03-12T02:14:35;17.00;;;10.67;;
5923;SDS011;2987;50.884;14.818;2023-03-12T02:17:03;17.50;;;9.60;;
5923;SDS011;2987;50.884;14.818;2023-03-12T02:19:34;21.17;;;10.90;;
5923;SDS011;2987;50.884;14.818;2023-03-12T02:22:09;20.53;;;10.50;;
5923;SDS011;2987;50.884;14.818;2023-03-12T02:24:43;15.27;;;9.90;;
5923;SDS011;2987;50.884;14.818;2023-03-12T02:27:12;15.93;;;9.23;;
5923;SDS011;2987;50.884;14.818;2023-03-12T02:29:40;14.57;;;9.47;;
5923;SDS011;2987;50.884;14.818;2023-03-12T02:32:09;35.97;;;15.53;;
5923;SDS011;2987;50.884;14.818;2023-03-12T02:34:44;36.40;;;15.80;;
5923;SDS011;2987;50.884;14.818;2023-03-12T02:37:13;49.10;;;19.53;;
5923;SDS011;2987;50.884;14.818;2023-03-12T02:39:39;48.47;;;19.10;;
5923;SDS011;2987;50.884;14.818;2023-03-12T02:42:12;45.90;;;17.43;;
5923;SDS011;2987;50.884;14.818;2023-03-12T02:44:42;35.17;;;15.50;;
5923;SDS011;2987;50.884;14.818;2023-03-12T02:47:09;26.50;;;12.60;;
5923;SDS011;2987;50.884;14.818;2023-03-12T02:49:35;27.73;;;12.33;;
5923;SDS011;2987;50.884;14.818;2023-03-12T02:52:01;23.97;;;12.17;;
5923;SDS011;2987;50.884;14.818;2023-03-12T02:54:28;19.80;;;9.73;;
5923;SDS011;2987;50.884;14.818;2023-03-12T02:56:54;18.77;;;9.97;;
5923;SDS011;2987;50.884;14.818;2023-03-12T02:59:21;20.67;;;10.17;;
5923;SDS011;2987;50.884;14.818;2023-03-12T03:01:54;16.37;;;9.67;;
5923;SDS011;2987;50.884;14.818;2023-03-12T03:04:22;13.90;;;9.70;;
5923;SDS011;2987;50.884;14.818;2023-03-12T03:06:49;15.97;;;9.40;;
5923;SDS011;2987;50.884;14.818;2023-03-12T03:09:16;16.17;;;8.93;;
5923;SDS011;2987;50.884;14.818;2023-03-12T03:11:43;16.60;;;8.90;;
5923;SDS011;2987;50.884;14.818;2023-03-12T03:14:13;16.80;;;8.90;;
5923;SDS011;2987;50.884;14.818;2023-03-12T03:16:39;11.77;;;8.43;;
5923;SDS011;2987;50.884;14.818;2023-03-12T03:19:05;13.53;;;9.10;;
5923;SDS011;2987;50.884;14.818;2023-03-12T03:21:32;12.73;;;8.90;;
5923;SDS011;2987;50.884;14.818;2023-03-12T03:23:59;18.77;;;8.53;;
5923;SDS011;2987;50.884;14.818;2023-03-12T03:26:25;12.63;;;8.90;;
5923;SDS011;2987;50.884;14.818;2023-03-12T03:28:52;13.87;;;8.43;;
5923;SDS011;2987;50.884;14.818;2023-03-12T03:31:18;13.80;;;7.97;;
5923;SDS011;2987;50.884;14.818;2023-03-12T03:33:45;17.57;;;8.67;;
5923;SDS011;2987;50.884;14.818;2023-03-12T03:36:12;15.73;;;8.40;;
5923;SDS011;2987;50.884;14.818;2023-03-12T03:38:46;16.07;;;8.53;;
5923;SDS011;2987;50.884;14.818;2023-03-12T03:41:15;15.13;;;7.87;;
5923;SDS011;2987;50.884;14.818;2023-03-12T03:43:43;14.90;;;8.87;;
5923;SDS011;2987;50.884;14.818;2023-03-12T03:46:10;17.57;;;8.30;;
5923;SDS011;2987;50.884;14.818;2023-03-12T03:48:41;13.70;;;8.13;;
5923;SDS011;2987;50.884;14.818;2023-03-12T03:51:08;14.30;;;8.60;;
5923;SDS011;2987;50.884;14.818;2023-03-12T03:53:40;12.43;;;8.63;;
5923;SDS011;2987;50.884;14.818;2023-03-12T03:56:07;13.77;;;8.17;;
5923;SDS011;2987;50.884;14.818;2023-03-12T03:58:37;17.63;;;8.27;;
5923;SDS011;2987;50.884;14.818;2023-03-12T04:01:03;14.40;;;8.07;;
5923;SDS011;2987;50.884;14.818;2023-03-12T04:03:31;19.00;;;8.57;;
5923;SDS011;2987;50.884;14.818;2023-03-12T04:05:58;13.33;;;7.93;;
5923;SDS011;2987;50.884;14.818;2023-03-12T04:08:26;13.63;;;8.23;;
5923;SDS011;2987;50.884;14.818;2023-03-12T04:10:53;15.73;;;7.47;;
5923;SDS011;2987;50.884;14.818;2023-03-12T04:13:20;13.03;;;7.07;;
5923;SDS011;2987;50.884;14.818;2023-03-12T04:15:47;16.07;;;7.80;;
5923;SDS011;2987;50.884;14.818;2023-03-12T04:18:15;13.43;;;7.37;;
5923;SDS011;2987;50.884;14.818;2023-03-12T04:20:42;12.37;;;7.20;;
5923;SDS011;2987;50.884;14.818;2023-03-12T04:23:09;12.50;;;6.00;;
5923;SDS011;2987;50.884;14.818;2023-03-12T04:25:35;9.30;;;5.90;;
5923;SDS011;2987;50.884;14.818;2023-03-12T04:28:03;9.70;;;6.10;;
5923;SDS011;2987;50.884;14.818;2023-03-12T04:30:31;14.73;;;6.17;;
5923;SDS011;2987;50.884;14.818;2023-03-12T04:32:57;13.03;;;6.20;;
5923;SDS011;2987;50.884;14.818;2023-03-12T04:35:23;10.97;;;5.63;;
5923;SDS011;2987;50.884;14.818;2023-03-12T04:37:50;9.73;;;5.80;;
5923;SDS011;2987;50.884;14.818;2023-03-12T04:40:17;9.50;;;5.37;;
5923;SDS011;2987;50.884;14.818;2023-03-12T04:42:44;10.27;;;5.57;;
5923;SDS011;2987;50.884;14.818;2023-03-12T04:45:11;8.03;;;5.60;;
5923;SDS011;2987;50.884;14.818;2023-03-12T04:47:42;9.83;;;5.43;;
5923;SDS011;2987;50.884;14.818;2023-03-12T04:50:09;12.27;;;5.77;;
5923;SDS011;2987;50.884;14.818;2023-03-12T04:52:37;9.40;;;5.67;;
5923;SDS011;2987;50.884;14.818;2023-03-12T04:55:05;9.23;;;5.67;;
5923;SDS011;2987;50.884;14.818;2023-03-12T04:57:31;8.40;;;5.23;;
5923;SDS011;2987;50.884;14.818;2023-03-12T04:59:57;8.80;;;5.57;;
5923;SDS011;2987;50.884;14.818;2023-03-12T05:02:23;17.43;;;6.83;;
5923;SDS011;2987;50.884;14.818;2023-03-12T05:04:51;13.87;;;7.17;;
5923;SDS011;2987;50.884;14.818;2023-03-12T05:07:19;10.80;;;6.53;;
5923;SDS011;2987;50.884;14.818;2023-03-12T05:09:46;14.80;;;7.23;;
5923;SDS011;2987;50.884;14.818;2023-03-12T05:12:12;11.53;;;7.00;;
5923;SDS011;2987;50.884;14.818;2023-03-12T05:14:39;13.30;;;6.87;;
5923;SDS011;2987;50.884;14.818;2023-03-12T05:17:06;14.07;;;6.83;;
5923;SDS011;2987;50.884;14.818;2023-03-12T05:19:33;13.57;;;7.03;;
5923;SDS011;2987;50.884;14.818;2023-03-12T05:22:00;15.63;;;7.20;;
5923;SDS011;2987;50.884;14.818;2023-03-12T05:24:28;14.57;;;6.73;;
5923;SDS011;2987;50.884;14.818;2023-03-12T05:26:54;11.97;;;6.67;;
5923;SDS011;2987;50.884;14.818;2023-03-12T05:29:22;12.83;;;6.33;;
5923;SDS011;2987;50.884;14.818;2023-03-12T05:31:50;10.00;;;6.03;;
5923;SDS011;2987;50.884;14.818;2023-03-12T05:34:16;12.00;;;6.30;;
5923;SDS011;2987;50.884;14.818;2023-03-12T05:36:43;11.20;;;6.87;;
5923;SDS011;2987;50.884;14.818;2023-03-12T05:39:11;10.33;;;7.27;;
5923;SDS011;2987;50.884;14.818;2023-03-12T05:41:38;13.40;;;7.23;;
5923;SDS011;2987;50.884;14.818;2023-03-12T05:44:11;13.50;;;6.47;;
5923;SDS011;2987;50.884;14.818;2023-03-12T05:46:42;12.77;;;6.57;;
5923;SDS011;2987;50.884;14.818;2023-03-12T05:49:08;11.40;;;5.93;;
5923;SDS011;2987;50.884;14.818;2023-03-12T05:51:35;11.27;;;5.90;;
5923;SDS011;2987;50.884;14.818;2023-03-12T05:54:04;12.03;;;5.93;;
5923;SDS011;2987;50.884;14.818;2023-03-12T05:56:30;14.17;;;5.97;;
5923;SDS011;2987;50.884;14.818;2023-03-12T05:58:57;9.97;;;5.20;;
5923;SDS011;2987;50.884;14.818;2023-03-12T06:01:25;8.40;;;5.30;;
5923;SDS011;2987;50.884;14.818;2023-03-12T06:03:55;10.70;;;5.50;;
5923;SDS011;2987;50.884;14.818;2023-03-12T06:06:22;8.97;;;5.17;;
5923;SDS011;2987;50.884;14.818;2023-03-12T06:08:50;5.73;;;4.67;;
5923;SDS011;2987;50.884;14.818;2023-03-12T06:11:17;7.57;;;4.50;;
5923;SDS011;2987;50.884;14.818;2023-03-12T06:13:43;9.63;;;5.30;;
5923;SDS011;2987;50.884;14.818;2023-03-12T06:16:17;7.43;;;5.07;;
5923;SDS011;2987;50.884;14.818;2023-03-12T06:18:46;8.83;;;5.00;;
5923;SDS011;2987;50.884;14.818;2023-03-12T06:21:16;8.27;;;5.73;;
5923;SDS011;2987;50.884;14.818;2023-03-12T06:23:44;8.87;;;5.23;;
5923;SDS011;2987;50.884;14.818;2023-03-12T06:26:17;9.27;;;4.70;;
5923;SDS011;2987;50.884;14.818;2023-03-12T06:28:44;11.50;;;5.40;;
5923;SDS011;2987;50.884;14.818;2023-03-12T06:31:12;8.70;;;4.90;;
5923;SDS011;2987;50.884;14.818;2023-03-12T06:33:38;7.60;;;4.93;;
5923;SDS011;2987;50.884;14.818;2023-03-12T08:40:31;6.60;;;3.43;;
5923;SDS011;2987;50.884;14.818;2023-03-12T08:42:57;5.30;;;3.83;;
5923;SDS011;2987;50.884;14.818;2023-03-12T08:45:23;8.70;;;3.90;;
5923;SDS011;2987;50.884;14.818;2023-03-12T08:47:49;7.47;;;3.97;;
5923;SDS011;2987;50.884;14.818;2023-03-12T08:50:16;5.27;;;3.50;;
5923;SDS011;2987;50.884;14.818;2023-03-12T08:52:42;5.20;;;3.37;;
5923;SDS011;2987;50.884;14.818;2023-03-12T08:55:09;4.80;;;3.20;;
5923;SDS011;2987;50.884;14.818;2023-03-12T08:57:37;5.43;;;3.20;;
5923;SDS011;2987;50.884;14.818;2023-03-12T09:00:04;5.07;;;3.07;;
5923;SDS011;2987;50.884;14.818;2023-03-12T09:02:36;5.67;;;3.10;;
5923;SDS011;2987;50.884;14.818;2023-03-12T09:05:03;4.23;;;3.03;;
5923;SDS011;2987;50.884;14.818;2023-03-12T09:07:30;4.93;;;3.27;;
5923;SDS011;2987;50.884;14.818;2023-03-12T09:09:56;4.43;;;3.30;;
5923;SDS011;2987;50.884;14.818;2023-03-12T09:12:22;9.17;;;3.70;;
5923;SDS011;2987;50.884;14.818;2023-03-12T09:14:49;5.53;;;3.60;;
5923;SDS011;2987;50.884;14.818;2023-03-12T09:17:16;3.90;;;3.00;;
5923;SDS011;2987;50.884;14.818;2023-03-12T09:19:43;6.10;;;3.10;;
5923;SDS011;2987;50.884;14.818;2023-03-12T09:22:09;8.00;;;3.03;;
5923;SDS011;2987;50.884;14.818;2023-03-12T09:24:35;3.80;;;3.27;;
5923;SDS011;2987;50.884;14.818;2023-03-12T09:27:04;7.07;;;3.47;;
5923;SDS011;2987;50.884;14.818;2023-03-12T09:29:31;8.23;;;3.93;;
5923;SDS011;2987;50.884;14.818;2023-03-12T09:31:57;6.53;;;4.00;;
5923;SDS011;2987;50.884;14.818;2023-03-12T09:34:23;6.47;;;3.90;;
5923;SDS011;2987;50.884;14.818;2023-03-12T09:36:50;6.37;;;3.60;;
5923;SDS011;2987;50.884;14.818;2023-03-12T09:39:16;7.60;;;4.07;;
5923;SDS011;2987;50.884;14.818;2023-03-12T09:41:43;6.37;;;3.57;;
5923;SDS011;2987;50.884;14.818;2023-03-12T09:44:15;6.67;;;3.90;;
5923;SDS011;2987;50.884;14.818;2023-03-12T09:46:50;7.40;;;3.90;;
5923;SDS011;2987;50.884;14.818;2023-03-12T09:49:42;8.20;;;4.33;;
5923;SDS011;2987;50.884;14.818;2023-03-12T09:52:18;7.10;;;4.10;;
5923;SDS011;2987;50.884;14.818;2023-03-12T09:54:50;6.47;;;3.83;;
5923;SDS011;2987;50.884;14.818;2023-03-12T09:57:24;7.87;;;4.10;;
5923;SDS011;2987;50.884;14.818;2023-03-12T09:59:54;7.30;;;4.43;;
5923;SDS011;2987;50.884;14.818;2023-03-12T10:07:45;8.83;;;4.73;;
5923;SDS011;2987;50.884;14.818;2023-03-12T10:10:25;6.90;;;5.17;;
5923;SDS011;2987;50.884;14.818;2023-03-12T10:21:28;10.57;;;5.10;;
5923;SDS011;2987;50.884;14.818;2023-03-12T10:26:41;7.30;;;4.50;;
5923;SDS011;2987;50.884;14.818;2023-03-12T10:29:12;7.80;;;4.33;;
5923;SDS011;2987;50.884;14.818;2023-03-12T10:34:42;9.17;;;4.43;;
5923;SDS011;2987;50.884;14.818;2023-03-12T10:37:16;7.87;;;4.70;;
5923;SDS011;2987;50.884;14.818;2023-03-12T10:40:03;8.33;;;4.70;;
5923;SDS011;2987;50.884;14.818;2023-03-12T10:47:49;9.87;;;4.20;;
5923;SDS011;2987;50.884;14.818;2023-03-12T10:50:22;8.40;;;3.60;;
5923;SDS011;2987;50.884;14.818;2023-03-12T10:57:54;5.53;;;3.37;;
5923;SDS011;2987;50.884;14.818;2023-03-12T11:00:23;5.07;;;2.83;;
5923;SDS011;2987;50.884;14.818;2023-03-12T11:08:18;6.83;;;2.90;;
5923;SDS011;2987;50.884;14.818;2023-03-12T11:10:55;9.23;;;2.70;;
5923;SDS011;2987;50.884;14.818;2023-03-12T11:16:23;5.33;;;3.10;;
5923;SDS011;2987;50.884;14.818;2023-03-12T11:18:54;6.17;;;3.10;;
5923;SDS011;2987;50.884;14.818;2023-03-12T11:21:26;4.40;;;2.90;;
5923;SDS011;2987;50.884;14.818;2023-03-12T11:24:03;4.67;;;2.77;;
5923;SDS011;2987;50.884;14.818;2023-03-12T11:29:16;7.17;;;2.90;;
5923;SDS011;2987;50.884;14.818;2023-03-12T11:32:03;6.13;;;2.90;;
5923;SDS011;2987;50.884;14.818;2023-03-12T11:34:39;4.30;;;2.93;;
5923;SDS011;2987;50.884;14.818;2023-03-12T11:48:55;2.97;;;2.60;;
5923;SDS011;2987;50.884;14.818;2023-03-12T11:51:43;2.87;;;2.13;;
5923;SDS011;2987;50.884;14.818;2023-03-12T11:56:55;4.23;;;2.00;;
5923;SDS011;2987;50.884;14.818;2023-03-12T11:59:29;4.37;;;2.40;;
5923;SDS011;2987;50.884;14.818;2023-03-12T12:05:07;4.47;;;2.30;;
5923;SDS011;2987;50.884;14.818;2023-03-12T12:13:23;2.90;;;2.27;;
5923;SDS011;2987;50.884;14.818;2023-03-12T12:34:53;3.20;;;1.80;;
5923;SDS011;2987;50.884;14.818;2023-03-12T12:40:34;3.33;;;1.90;;
5923;SDS011;2987;50.884;14.818;2023-03-12T12:48:21;3.27;;;1.83;;
5923;SDS011;2987;50.884;14.818;2023-03-12T12:50:53;5.60;;;2.50;;
5923;SDS011;2987;50.884;14.818;2023-03-12T12:58:58;2.97;;;2.27;;
5923;SDS011;2987;50.884;14.818;2023-03-12T13:01:47;4.00;;;2.60;;
5923;SDS011;2987;50.884;14.818;2023-03-12T13:04:18;3.47;;;2.33;;
5923;SDS011;2987;50.884;14.818;2023-03-12T13:06:55;5.50;;;2.90;;
5923;SDS011;2987;50.884;14.818;2023-03-12T13:09:45;3.30;;;2.33;;
5923;SDS011;2987;50.884;14.818;2023-03-12T13:18:03;5.27;;;3.13;;
5923;SDS011;2987;50.884;14.818;2023-03-12T13:20:36;4.67;;;3.13;;
5923;SDS011;2987;50.884;14.818;2023-03-12T13:23:22;3.40;;;2.60;;
5923;SDS011;2987;50.884;14.818;2023-03-12T13:31:44;5.37;;;3.23;;
5923;SDS011;2987;50.884;14.818;2023-03-12T13:36:46;3.97;;;3.30;;
5923;SDS011;2987;50.884;14.818;2023-03-12T13:39:18;6.93;;;4.13;;
5923;SDS011;2987;50.884;14.818;2023-03-12T13:44:30;5.57;;;3.20;;
5923;SDS011;2987;50.884;14.818;2023-03-12T13:47:05;8.27;;;4.43;;
5923;SDS011;2987;50.884;14.818;2023-03-12T13:50:04;4.00;;;3.20;;
5923;SDS011;2987;50.884;14.818;2023-03-12T13:55:32;7.20;;;3.20;;
5923;SDS011;2987;50.884;14.818;2023-03-12T14:08:52;5.87;;;3.30;;
5923;SDS011;2987;50.884;14.818;2023-03-12T14:20:00;8.47;;;3.77;;
5923;SDS011;2987;50.884;14.818;2023-03-12T14:22:31;5.13;;;3.40;;
5923;SDS011;2987;50.884;14.818;2023-03-12T14:25:02;6.43;;;3.40;;
5923;SDS011;2987;50.884;14.818;2023-03-12T14:27:36;5.30;;;3.20;;
5923;SDS011;2987;50.884;14.818;2023-03-12T14:30:09;6.67;;;3.00;;
5923;SDS011;2987;50.884;14.818;2023-03-12T14:32:44;4.80;;;3.17;;
5923;SDS011;2987;50.884;14.818;2023-03-12T14:35:15;7.53;;;3.50;;
5923;SDS011;2987;50.884;14.818;2023-03-12T14:37:51;4.90;;;3.70;;
5923;SDS011;2987;50.884;14.818;2023-03-12T14:40:37;5.23;;;3.03;;
5923;SDS011;2987;50.884;14.818;2023-03-12T14:43:18;9.80;;;3.17;;
5923;SDS011;2987;50.884;14.818;2023-03-12T14:51:06;7.50;;;3.83;;
5923;SDS011;2987;50.884;14.818;2023-03-12T14:53:33;6.50;;;3.43;;
5923;SDS011;2987;50.884;14.818;2023-03-12T14:58:30;8.13;;;3.50;;
5923;SDS011;2987;50.884;14.818;2023-03-12T15:00:58;6.43;;;4.37;;
5923;SDS011;2987;50.884;14.818;2023-03-12T15:03:26;7.17;;;3.33;;
5923;SDS011;2987;50.884;14.818;2023-03-12T15:05:54;5.60;;;3.10;;
5923;SDS011;2987;50.884;14.818;2023-03-12T15:08:21;5.30;;;3.20;;
5923;SDS011;2987;50.884;14.818;2023-03-12T15:10:50;6.90;;;3.27;;
5923;SDS011;2987;50.884;14.818;2023-03-12T15:13:19;5.97;;;3.20;;
5923;SDS011;2987;50.884;14.818;2023-03-12T15:15:47;8.53;;;3.47;;
5923;SDS011;2987;50.884;14.818;2023-03-12T15:18:17;5.07;;;3.23;;
5923;SDS011;2987;50.884;14.818;2023-03-12T15:20:47;4.93;;;3.33;;
5923;SDS011;2987;50.884;14.818;2023-03-12T15:23:14;6.63;;;3.53;;
5923;SDS011;2987;50.884;14.818;2023-03-12T15:25:43;5.53;;;3.37;;
5923;SDS011;2987;50.884;14.818;2023-03-12T15:31:11;5.70;;;3.30;;
5923;SDS011;2987;50.884;14.818;2023-03-12T15:33:41;4.63;;;3.60;;
5923;SDS011;2987;50.884;14.818;2023-03-12T15:36:19;11.47;;;3.53;;
5923;SDS011;2987;50.884;14.818;2023-03-12T15:38:51;7.27;;;4.03;;
5923;SDS011;2987;50.884;14.818;2023-03-12T15:41:25;6.10;;;3.40;;
5923;SDS011;2987;50.884;14.818;2023-03-12T15:44:00;5.23;;;3.63;;
5923;SDS011;2987;50.884;14.818;2023-03-12T15:46:27;6.97;;;3.67;;
5923;SDS011;2987;50.884;14.818;2023-03-12T15:48:55;7.30;;;3.70;;
5923;SDS011;2987;50.884;14.818;2023-03-12T15:51:26;5.80;;;3.67;;
5923;SDS011;2987;50.884;14.818;2023-03-12T15:56:48;5.17;;;3.40;;
5923;SDS011;2987;50.884;14.818;2023-03-12T16:04:14;7.17;;;3.87;;
5923;SDS011;2987;50.884;14.818;2023-03-12T16:06:40;4.80;;;3.70;;
5923;SDS011;2987;50.884;14.818;2023-03-12T16:11:37;6.70;;;4.03;;
5923;SDS011;2987;50.884;14.818;2023-03-12T16:14:04;6.70;;;3.93;;
5923;SDS011;2987;50.884;14.818;2023-03-12T16:16:42;6.43;;;3.33;;
5923;SDS011;2987;50.884;14.818;2023-03-12T16:19:10;6.37;;;3.90;;
5923;SDS011;2987;50.884;14.818;2023-03-12T16:21:41;7.10;;;3.83;;
5923;SDS011;2987;50.884;14.818;2023-03-12T16:24:09;8.10;;;3.60;;
5923;SDS011;2987;50.884;14.818;2023-03-12T16:26:37;6.40;;;3.87;;
5923;SDS011;2987;50.884;14.818;2023-03-12T16:29:13;7.00;;;3.60;;
5923;SDS011;2987;50.884;14.818;2023-03-12T16:31:42;7.53;;;3.70;;
5923;SDS011;2987;50.884;14.818;2023-03-12T16:34:09;4.57;;;3.30;;
5923;SDS011;2987;50.884;14.818;2023-03-12T16:36:36;4.90;;;3.20;;
5923;SDS011;2987;50.884;14.818;2023-03-12T16:39:02;6.87;;;3.93;;
5923;SDS011;2987;50.884;14.818;2023-03-12T16:41:28;7.03;;;3.53;;
5923;SDS011;2987;50.884;14.818;2023-03-12T16:43:57;5.00;;;4.03;;
5923;SDS011;2987;50.884;14.818;2023-03-12T16:46:26;5.90;;;3.67;;
5923;SDS011;2987;50.884;14.818;2023-03-12T16:48:56;7.00;;;3.90;;
5923;SDS011;2987;50.884;14.818;2023-03-12T16:51:22;7.43;;;4.03;;
5923;SDS011;2987;50.884;14.818;2023-03-12T16:53:49;6.90;;;3.77;;
5923;SDS011;2987;50.884;14.818;2023-03-12T16:56:16;6.87;;;3.90;;
5923;SDS011;2987;50.884;14.818;2023-03-12T16:58:45;6.87;;;4.43;;
5923;SDS011;2987;50.884;14.818;2023-03-12T17:01:16;6.90;;;3.87;;
5923;SDS011;2987;50.884;14.818;2023-03-12T17:03:45;6.47;;;3.73;;
5923;SDS011;2987;50.884;14.818;2023-03-12T17:06:15;6.67;;;3.60;;
5923;SDS011;2987;50.884;14.818;2023-03-12T17:08:44;7.20;;;3.83;;
5923;SDS011;2987;50.884;14.818;2023-03-12T17:11:13;7.07;;;4.07;;
5923;SDS011;2987;50.884;14.818;2023-03-12T17:13:42;9.23;;;3.90;;
5923;SDS011;2987;50.884;14.818;2023-03-12T17:16:11;7.37;;;4.13;;
5923;SDS011;2987;50.884;14.818;2023-03-12T17:18:38;5.77;;;3.67;;
5923;SDS011;2987;50.884;14.818;2023-03-12T17:21:05;6.73;;;4.17;;
5923;SDS011;2987;50.884;14.818;2023-03-12T17:23:34;7.17;;;4.13;;
5923;SDS011;2987;50.884;14.818;2023-03-12T17:26:01;6.80;;;4.20;;
5923;SDS011;2987;50.884;14.818;2023-03-12T17:28:27;8.20;;;3.80;;
5923;SDS011;2987;50.884;14.818;2023-03-12T17:30:53;9.67;;;4.70;;
5923;SDS011;2987;50.884;14.818;2023-03-12T17:33:20;7.77;;;4.60;;
5923;SDS011;2987;50.884;14.818;2023-03-12T17:35:54;9.40;;;4.10;;
5923;SDS011;2987;50.884;14.818;2023-03-12T17:38:26;7.83;;;4.50;;
5923;SDS011;2987;50.884;14.818;2023-03-12T17:40:53;7.27;;;4.57;;
5923;SDS011;2987;50.884;14.818;2023-03-12T17:43:19;9.53;;;4.90;;
5923;SDS011;2987;50.884;14.818;2023-03-12T17:45:45;9.90;;;5.07;;
5923;SDS011;2987;50.884;14.818;2023-03-12T17:48:11;8.50;;;4.90;;
5923;SDS011;2987;50.884;14.818;2023-03-12T17:50:38;10.60;;;5.00;;
5923;SDS011;2987;50.884;14.818;2023-03-12T17:53:04;7.57;;;4.87;;
5923;SDS011;2987;50.884;14.818;2023-03-12T17:55:30;11.10;;;5.63;;
5923;SDS011;2987;50.884;14.818;2023-03-12T17:57:56;13.60;;;5.60;;
5923;SDS011;2987;50.884;14.818;2023-03-12T18:00:23;9.33;;;5.20;;
5923;SDS011;2987;50.884;14.818;2023-03-12T18:02:49;11.87;;;5.63;;
5923;SDS011;2987;50.884;14.818;2023-03-12T18:05:15;11.13;;;5.90;;
5923;SDS011;2987;50.884;14.818;2023-03-12T18:07:41;6.80;;;5.47;;
5923;SDS011;2987;50.884;14.818;2023-03-12T18:10:08;12.63;;;5.57;;
5923;SDS011;2987;50.884;14.818;2023-03-12T18:12:36;10.47;;;5.67;;
5923;SDS011;2987;50.884;14.818;2023-03-12T18:15:05;9.00;;;5.93;;
5923;SDS011;2987;50.884;14.818;2023-03-12T18:17:32;9.50;;;6.10;;
5923;SDS011;2987;50.884;14.818;2023-03-12T18:19:59;11.53;;;5.83;;
5923;SDS011;2987;50.884;14.818;2023-03-12T18:22:25;10.13;;;5.47;;
5923;SDS011;2987;50.884;14.818;2023-03-12T18:24:51;11.37;;;5.60;;
5923;SDS011;2987;50.884;14.818;2023-03-12T18:27:17;10.70;;;5.57;;
5923;SDS011;2987;50.884;14.818;2023-03-12T18:29:43;12.70;;;5.63;;
5923;SDS011;2987;50.884;14.818;2023-03-12T18:32:09;9.47;;;5.40;;
5923;SDS011;2987;50.884;14.818;2023-03-12T18:34:36;13.07;;;6.07;;
5923;SDS011;2987;50.884;14.818;2023-03-12T18:37:05;11.73;;;6.43;;
5923;SDS011;2987;50.884;14.818;2023-03-12T18:39:32;8.33;;;5.47;;
5923;SDS011;2987;50.884;14.818;2023-03-12T18:41:58;8.53;;;5.50;;
5923;SDS011;2987;50.884;14.818;2023-03-12T18:44:24;8.23;;;5.40;;
5923;SDS011;2987;50.884;14.818;2023-03-12T18:46:50;9.27;;;5.13;;
5923;SDS011;2987;50.884;14.818;2023-03-12T18:49:16;8.17;;;4.80;;
5923;SDS011;2987;50.884;14.818;2023-03-12T18:51:42;8.27;;;5.60;;
5923;SDS011;2987;50.884;14.818;2023-03-12T18:54:08;8.37;;;4.97;;
5923;SDS011;2987;50.884;14.818;2023-03-12T18:59:27;9.73;;;5.77;;
5923;SDS011;2987;50.884;14.818;2023-03-12T19:01:53;6.57;;;5.87;;
5923;SDS011;2987;50.884;14.818;2023-03-12T19:04:20;8.57;;;5.63;;
5923;SDS011;2987;50.884;14.818;2023-03-12T19:06:46;9.33;;;5.63;;
5923;SDS011;2987;50.884;14.818;2023-03-12T19:09:12;10.27;;;6.07;;
5923;SDS011;2987;50.884;14.818;2023-03-12T19:11:39;8.60;;;5.47;;
5923;SDS011;2987;50.884;14.818;2023-03-12T19:14:05;7.83;;;6.00;;
5923;SDS011;2987;50.884;14.818;2023-03-12T19:16:31;8.87;;;5.97;;
5923;SDS011;2987;50.884;14.818;2023-03-12T19:18:57;10.37;;;6.00;;
5923;SDS011;2987;50.884;14.818;2023-03-12T19:21:24;9.03;;;6.10;;
5923;SDS011;2987;50.884;14.818;2023-03-12T19:23:50;9.70;;;6.40;;
5923;SDS011;2987;50.884;14.818;2023-03-12T19:26:16;8.97;;;6.37;;
5923;SDS011;2987;50.884;14.818;2023-03-12T19:28:42;8.00;;;5.87;;
5923;SDS011;2987;50.884;14.818;2023-03-12T19:31:09;9.73;;;6.17;;
5923;SDS011;2987;50.884;14.818;2023-03-12T19:33:38;6.90;;;5.80;;
5923;SDS011;2987;50.884;14.818;2023-03-12T19:36:04;10.40;;;6.60;;
5923;SDS011;2987;50.884;14.818;2023-03-12T19:38:30;9.20;;;6.40;;
5923;SDS011;2987;50.884;14.818;2023-03-12T19:40:57;10.13;;;6.37;;
5923;SDS011;2987;50.884;14.818;2023-03-12T19:43:23;10.03;;;6.70;;
5923;SDS011;2987;50.884;14.818;2023-03-12T19:45:51;8.13;;;6.10;;
5923;SDS011;2987;50.884;14.818;2023-03-12T19:48:19;7.93;;;5.63;;